Captain John G. — WDE9092 — position and weather

sailwx.info

Track history (hours):
 
Tides and Currents Weather Stations Pressure Air Temp Water Temp Dewpoint Dewpoint Depression Visibility Wind Speed Wind Dir Waves Ship Positions

Captain John G.

Owner: MIKE HOOKS, INC., WESTLAKE, LA. More information available from US FCC via Universal Licensing System and Coast Guard Vessel Documentation Center.

Last reported at 2017-Sep-29 03:32 UTC. Time now 2017-Oct-20 04:53 UTC.
Position N 29°33' W 090°24'.
Warning: this ship's position is 21 days out of date.

Type: Tug. MMSI: 367413340.

Date/timePositionNaut miles runAvg speedWind from/ knotsBaromVisibWave heightAir tempDewpointWater temp
2017-Sep-29 03:32N 29°33' W 090°24'0 7.5
2017-Sep-29 03:30N 29°33' W 090°25'4 7.4
2017-Sep-29 02:58N 29°34' W 090°29'4 7.5
2017-Sep-29 02:30N 29°34' W 090°33'3 6.1
2017-Sep-29 02:00N 29°35' W 090°36'3 6.1
2017-Sep-29 01:30N 29°36' W 090°40'3 5.4
2017-Sep-29 01:00N 29°36' W 090°43'3 5.4
2017-Sep-29 00:30N 29°34' W 090°44'4 7.1
2017-Sep-29 00:00N 29°32' W 090°48'7 7.5
2017-Sep-28 23:08N 29°33' W 090°55'1 7.4
2017-Sep-28 23:00N 29°34' W 090°56'114 3.9
2017-Sep-27 17:45N 29°56' W 093°05'2 7.9
2017-Sep-27 17:30N 29°56' W 093°07'4 7.1
2017-Sep-27 17:01N 29°57' W 093°11'4 8.0
2017-Sep-27 16:31N 30°00' W 093°14'3 7.0
2017-Sep-27 16:01N 30°03' W 093°16'2 4.9
2017-Sep-27 15:31N 30°05' W 093°18'1 2.2
2017-Sep-27 15:01N 30°06' W 093°19'1 2.6
2017-Sep-27 14:31N 30°06' W 093°20'4 8.3
2017-Sep-27 14:01N 30°11' W 093°19'4 8.0
2017-Sep-27 13:30N 30°13' W 093°16'1 1.0
2017-Sep-27 13:01N 30°14' W 093°15'0 0.0
2017-Sep-27 12:30N 30°14' W 093°15'0 0.0
2017-Sep-27 12:01N 30°14' W 093°15'0 0.0
2017-Sep-27 11:30N 30°14' W 093°15'0 0.0
2017-Sep-27 11:00N 30°14' W 093°15'0 0.0
2017-Sep-27 10:31N 30°14' W 093°15'0 0.0
2017-Sep-27 10:00N 30°14' W 093°15'0 0.0
2017-Sep-27 09:30N 30°14' W 093°15'0 0.0
2017-Sep-27 09:00N 30°14' W 093°15'0 0.0
2017-Sep-27 08:30N 30°14' W 093°15'0 0.0
2017-Sep-27 08:00N 30°14' W 093°15'0 0.0
2017-Sep-27 07:30N 30°14' W 093°15'0 0.0
2017-Sep-27 07:00N 30°14' W 093°15'0 0.0
2017-Sep-27 06:30N 30°14' W 093°15'0 0.0
2017-Sep-27 06:00N 30°14' W 093°15'0 0.0
2017-Sep-27 05:30N 30°14' W 093°15'0 0.0
2017-Sep-27 05:00N 30°14' W 093°15'0 0.0
2017-Sep-27 04:30N 30°14' W 093°15'0 0.0
2017-Sep-27 04:01N 30°14' W 093°15'0 0.0
2017-Sep-27 03:30N 30°14' W 093°15'0 0.0
2017-Sep-27 03:00N 30°14' W 093°15'0 0.0
2017-Sep-27 02:30N 30°14' W 093°15'0 0.0
2017-Sep-27 02:00N 30°14' W 093°15'0 0.0
2017-Sep-27 01:30N 30°14' W 093°15'0 0.0
2017-Sep-27 01:00N 30°14' W 093°15'0 0.0
2017-Sep-27 00:31N 30°14' W 093°15'0 0.0
2017-Sep-27 00:00N 30°14' W 093°15'0 0.0
2017-Sep-26 23:30N 30°14' W 093°15'0 0.0
2017-Sep-26 23:01N 30°14' W 093°15'0 0.0
2017-Sep-26 22:30N 30°14' W 093°15'0 0.0
2017-Sep-26 22:00N 30°14' W 093°15'0 0.0
2017-Sep-26 21:30N 30°14' W 093°15'0 0.0
2017-Sep-26 21:01N 30°14' W 093°15'0 0.0
2017-Sep-26 20:30N 30°14' W 093°15'0 0.0
2017-Sep-26 20:00N 30°14' W 093°15'0 0.0
2017-Sep-26 19:30N 30°14' W 093°15'0 0.0
2017-Sep-26 19:00N 30°14' W 093°15'0 0.0
2017-Sep-26 18:30N 30°14' W 093°15'0 0.0
2017-Sep-26 18:00N 30°14' W 093°15'0 0.0
2017-Sep-26 17:30N 30°14' W 093°15'0 0.0
2017-Sep-26 17:00N 30°14' W 093°15'0 0.0
2017-Sep-26 16:30N 30°14' W 093°15'0 0.0
2017-Sep-26 16:00N 30°14' W 093°15'0 0.0
2017-Sep-26 15:30N 30°14' W 093°15'0 0.0
2017-Sep-26 15:00N 30°14' W 093°15'0 0.0
2017-Sep-26 14:30N 30°14' W 093°15'0 0.0
2017-Sep-26 14:00N 30°14' W 093°15'0 0.0
2017-Sep-26 13:30N 30°14' W 093°15'0 0.0
2017-Sep-26 13:00N 30°14' W 093°15'0 0.0
2017-Sep-26 12:30N 30°14' W 093°15'0 0.0
2017-Sep-26 12:00N 30°14' W 093°15'0 0.0
2017-Sep-26 11:30N 30°14' W 093°15'0 0.0
2017-Sep-26 11:00N 30°14' W 093°15'0 0.0
2017-Sep-26 10:30N 30°14' W 093°15'0 0.0
2017-Sep-26 10:00N 30°14' W 093°15'0 0.0
2017-Sep-26 09:30N 30°14' W 093°15'0 0.0
2017-Sep-26 09:00N 30°14' W 093°15'0 0.0
2017-Sep-26 08:30N 30°14' W 093°15'0 0.0
2017-Sep-26 08:00N 30°14' W 093°15'0 0.0
2017-Sep-26 07:30N 30°14' W 093°15'0 0.0
2017-Sep-26 07:00N 30°14' W 093°15'0 0.0
2017-Sep-26 06:30N 30°14' W 093°15'0 0.0
2017-Sep-26 06:00N 30°14' W 093°15'0 0.0
2017-Sep-26 05:30N 30°14' W 093°15'0 0.0
2017-Sep-26 05:00N 30°14' W 093°15'0 0.0
2017-Sep-26 04:30N 30°14' W 093°15'0 0.0
2017-Sep-26 04:00N 30°14' W 093°15'0 0.0
2017-Sep-26 03:30N 30°14' W 093°15'0 0.0
2017-Sep-26 03:00N 30°14' W 093°15'0 0.0
2017-Sep-26 02:30N 30°14' W 093°15'0 0.0
2017-Sep-26 02:00N 30°14' W 093°15'0 0.0
2017-Sep-26 01:30N 30°14' W 093°15'0 0.0
2017-Sep-26 01:00N 30°14' W 093°15'0 0.0
2017-Sep-26 00:30N 30°14' W 093°15'0 0.0
2017-Sep-26 00:00N 30°14' W 093°15'0 0.0
2017-Sep-25 23:31N 30°14' W 093°15'0 0.0
2017-Sep-25 23:00N 30°14' W 093°15'0 0.0
2017-Sep-25 22:30N 30°14' W 093°15'0 0.0
2017-Sep-25 22:00N 30°14' W 093°15'0 0.0
2017-Sep-25 19:16N 30°14' W 093°15'0 0.0
2017-Sep-25 19:00N 30°14' W 093°15'0 0.0
2017-Sep-25 18:30N 30°14' W 093°15'0 0.0
2017-Sep-25 18:00N 30°14' W 093°15'0 0.0
2017-Sep-25 17:30N 30°14' W 093°15'0 0.0
2017-Sep-25 17:00N 30°14' W 093°15'0 0.0
2017-Sep-25 16:30N 30°14' W 093°15'0 0.0
2017-Sep-25 16:00N 30°14' W 093°15'0 0.0
2017-Sep-25 15:30N 30°14' W 093°15'0 0.0
2017-Sep-25 15:00N 30°14' W 093°15'0 0.0
2017-Sep-25 14:30N 30°14' W 093°15'0 0.0
2017-Sep-25 14:00N 30°14' W 093°15'0 0.0
2017-Sep-25 13:30N 30°14' W 093°15'0 0.0
2017-Sep-25 13:00N 30°14' W 093°15'0 0.0
2017-Sep-25 12:30N 30°14' W 093°15'0 0.0
2017-Sep-25 12:00N 30°14' W 093°15'0 0.0
2017-Sep-25 11:30N 30°14' W 093°15'0 0.0
2017-Sep-25 11:00N 30°14' W 093°15'0 0.0
2017-Sep-25 10:30N 30°14' W 093°15'0 0.0
2017-Sep-25 10:00N 30°14' W 093°15'0 0.0
2017-Sep-25 09:30N 30°14' W 093°15'0 0.0
2017-Sep-25 09:00N 30°14' W 093°15'0 0.0
2017-Sep-25 08:30N 30°14' W 093°15'0 0.0
2017-Sep-25 08:00N 30°14' W 093°15'0 0.0
2017-Sep-25 07:30N 30°14' W 093°15'0 0.0
2017-Sep-25 07:00N 30°14' W 093°15'0 0.0
2017-Sep-25 06:30N 30°14' W 093°15'0 0.0
2017-Sep-25 06:00N 30°14' W 093°15'0 0.0
2017-Sep-25 05:30N 30°14' W 093°15'0 0.0
2017-Sep-25 05:00N 30°14' W 093°15'0 0.0
2017-Sep-25 04:30N 30°14' W 093°15'0 0.0
2017-Sep-25 04:00N 30°14' W 093°15'0 0.0
2017-Sep-25 03:30N 30°14' W 093°15'0 0.0
2017-Sep-25 03:00N 30°14' W 093°15'0 0.0
2017-Sep-25 02:30N 30°14' W 093°15'0 0.0
2017-Sep-25 02:00N 30°14' W 093°15'0 0.0
2017-Sep-25 01:30N 30°14' W 093°15'0 0.0
2017-Sep-25 01:00N 30°14' W 093°15'0 0.0
2017-Sep-25 00:30N 30°14' W 093°15'0 0.0
2017-Sep-25 00:00N 30°14' W 093°15'0 0.0
2017-Sep-24 23:30N 30°14' W 093°15'0 0.0
2017-Sep-24 23:00N 30°14' W 093°15'0 0.0
2017-Sep-24 22:30N 30°14' W 093°15'0 0.0
2017-Sep-24 22:00N 30°14' W 093°15'0 0.0
2017-Sep-24 21:30N 30°14' W 093°15'0 0.0
2017-Sep-24 21:00N 30°14' W 093°15'0 0.0
2017-Sep-24 20:30N 30°14' W 093°15'0 0.0
2017-Sep-24 20:00N 30°14' W 093°15'0 0.0
2017-Sep-24 19:30N 30°14' W 093°15'0 0.0
2017-Sep-24 19:00N 30°14' W 093°15'0 0.0
2017-Sep-24 18:30N 30°14' W 093°15'0 0.0
2017-Sep-24 18:00N 30°14' W 093°15'0 0.0
2017-Sep-24 17:30N 30°14' W 093°15'0 0.0
2017-Sep-24 17:00N 30°14' W 093°15'0 0.0
2017-Sep-24 16:30N 30°14' W 093°15'0 0.0
2017-Sep-24 16:00N 30°14' W 093°15'0 0.0
2017-Sep-24 15:30N 30°14' W 093°15'0 0.0
2017-Sep-24 15:00N 30°14' W 093°15'0 0.0
2017-Sep-24 14:30N 30°14' W 093°15'0 0.0
2017-Sep-24 14:00N 30°14' W 093°15'0 0.0
2017-Sep-24 13:30N 30°14' W 093°15'0 0.0
2017-Sep-24 13:00N 30°14' W 093°15'0 0.0
2017-Sep-24 12:30N 30°14' W 093°15'0 0.0
2017-Sep-24 12:00N 30°14' W 093°15'0 0.0
2017-Sep-24 11:30N 30°14' W 093°15'0 0.0
2017-Sep-24 11:00N 30°14' W 093°15'0 0.0
2017-Sep-24 10:30N 30°14' W 093°15'0 0.0
2017-Sep-24 10:00N 30°14' W 093°15'0 0.0
2017-Sep-24 09:30N 30°14' W 093°15'0 0.0
2017-Sep-24 09:00N 30°14' W 093°15'0 0.0
2017-Sep-24 08:30N 30°14' W 093°15'0 0.0
2017-Sep-24 08:00N 30°14' W 093°15'0 0.0
2017-Sep-24 07:30N 30°14' W 093°15'0 0.0
2017-Sep-24 07:00N 30°14' W 093°15'0 0.0
2017-Sep-24 06:30N 30°14' W 093°15'0 0.0
2017-Sep-24 06:00N 30°14' W 093°15'0 0.0
2017-Sep-24 05:30N 30°14' W 093°15'0 0.0
2017-Sep-24 05:00N 30°14' W 093°15'0 0.0
2017-Sep-24 04:30N 30°14' W 093°15'0 0.0
2017-Sep-24 04:00N 30°14' W 093°15'0 0.0
2017-Sep-24 03:30N 30°14' W 093°15'0 0.0
2017-Sep-24 03:00N 30°14' W 093°15'0 0.0
2017-Sep-24 02:30N 30°14' W 093°15'0 0.0
2017-Sep-24 02:00N 30°14' W 093°15'0 0.0
2017-Sep-24 01:30N 30°14' W 093°15'0 0.0
2017-Sep-24 01:00N 30°14' W 093°15'0 0.0
2017-Sep-24 00:30N 30°14' W 093°15'0 0.0
2017-Sep-24 00:00N 30°14' W 093°15'0 0.0
2017-Sep-23 23:30N 30°14' W 093°15'0 0.0
2017-Sep-23 23:00N 30°14' W 093°15'0 0.0
2017-Sep-23 22:30N 30°14' W 093°15'0 0.0
2017-Sep-23 22:00N 30°14' W 093°15'0 0.0
2017-Sep-23 21:30N 30°14' W 093°15'0 0.0
2017-Sep-23 21:00N 30°14' W 093°15'0 0.0
2017-Sep-23 20:30N 30°14' W 093°15'0 0.0
2017-Sep-23 20:00N 30°14' W 093°15'0 0.0
2017-Sep-22 02:00N 30°14' W 093°15'0 0.0
2017-Sep-22 01:30N 30°14' W 093°15'0 0.0
2017-Sep-22 01:00N 30°14' W 093°15'0 0.0
2017-Sep-22 00:30N 30°14' W 093°15'0 0.0
2017-Sep-22 00:00N 30°14' W 093°15'0 0.0
2017-Sep-21 23:30N 30°14' W 093°15'0 0.0
2017-Sep-21 23:00N 30°14' W 093°15'0 0.0
2017-Sep-21 22:30N 30°14' W 093°15'0 0.0
2017-Sep-21 22:00N 30°14' W 093°15'0 0.0
2017-Sep-21 21:30N 30°14' W 093°15'0 0.0
2017-Sep-21 21:00N 30°14' W 093°15'0 0.0
2017-Sep-21 20:30N 30°14' W 093°15'0 0.0
2017-Sep-21 20:00N 30°14' W 093°15'0 0.0
2017-Sep-21 19:27N 30°14' W 093°15'0 0.0
2017-Sep-21 19:00N 30°14' W 093°15'0 0.0
2017-Sep-21 18:30N 30°14' W 093°15'0 0.0
2017-Sep-21 18:00N 30°14' W 093°15'0 0.0
2017-Sep-21 17:30N 30°14' W 093°15'0 0.0
2017-Sep-21 17:00N 30°14' W 093°15'0 0.0
2017-Sep-21 16:24N 30°14' W 093°15'0 0.0
2017-Sep-21 16:00N 30°14' W 093°15'0 0.0
2017-Sep-21 15:30N 30°14' W 093°15'0 0.0
2017-Sep-21 15:00N 30°14' W 093°15'0 0.0
2017-Sep-21 14:30N 30°14' W 093°15'0 0.0
2017-Sep-21 14:00N 30°14' W 093°15'0 0.0
2017-Sep-21 13:30N 30°14' W 093°15'0 0.0
2017-Sep-21 13:00N 30°14' W 093°15'0 0.0
2017-Sep-21 12:30N 30°14' W 093°15'0 0.0
2017-Sep-21 12:00N 30°14' W 093°15'0 0.0
2017-Sep-21 11:30N 30°14' W 093°15'0 0.0
2017-Sep-21 11:00N 30°14' W 093°15'0 0.0
2017-Sep-21 10:30N 30°14' W 093°15'0 0.0
2017-Sep-21 10:00N 30°14' W 093°15'0 0.0
2017-Sep-21 09:30N 30°14' W 093°15'0 0.0
2017-Sep-21 09:00N 30°14' W 093°15'0 0.0
2017-Sep-21 08:30N 30°14' W 093°15'0 0.0
2017-Sep-21 08:00N 30°14' W 093°15'0 0.0
2017-Sep-21 07:30N 30°14' W 093°15'0 0.0
2017-Sep-21 07:00N 30°14' W 093°15'0 0.0
2017-Sep-21 06:30N 30°14' W 093°15'0 0.0
2017-Sep-21 06:00N 30°14' W 093°15'0 0.0
2017-Sep-21 05:30N 30°14' W 093°15'0 0.0
2017-Sep-21 05:00N 30°14' W 093°15'0 0.0
2017-Sep-21 04:30N 30°14' W 093°15'0 0.0
2017-Sep-21 04:00N 30°14' W 093°15'0 0.0
2017-Sep-21 03:30N 30°14' W 093°15'0 0.0
2017-Sep-21 03:00N 30°14' W 093°15'0 0.0
2017-Sep-21 02:30N 30°14' W 093°15'0 0.0
2017-Sep-21 02:00N 30°14' W 093°15'0 0.0
2017-Sep-21 01:30N 30°14' W 093°15'0 0.0
2017-Sep-21 01:00N 30°14' W 093°15'0 0.0
2017-Sep-21 00:30N 30°14' W 093°15'0 0.0
2017-Sep-21 00:00N 30°14' W 093°15'0 0.0
2017-Sep-20 23:30N 30°14' W 093°15'0 0.0
2017-Sep-20 23:00N 30°14' W 093°15'0 0.0
2017-Sep-20 22:30N 30°14' W 093°15'0 0.0
2017-Sep-20 22:00N 30°14' W 093°15'0 0.0
2017-Sep-20 21:30N 30°14' W 093°15'0 0.0
2017-Sep-20 21:00N 30°14' W 093°15'0 0.0
2017-Sep-20 20:30N 30°14' W 093°15'0 0.0
2017-Sep-20 20:00N 30°14' W 093°15'0 0.0
2017-Sep-20 19:30N 30°14' W 093°15'0 0.0
2017-Sep-20 19:00N 30°14' W 093°15'0 0.0
2017-Sep-20 18:30N 30°14' W 093°15'0 0.0
2017-Sep-20 18:00N 30°14' W 093°15'0 0.0
2017-Sep-20 17:30N 30°14' W 093°15'0 0.0
2017-Sep-20 17:00N 30°14' W 093°15'0 0.0
2017-Sep-20 16:30N 30°14' W 093°15'0 0.0
2017-Sep-20 16:00N 30°14' W 093°15'0 0.0
2017-Sep-20 15:30N 30°14' W 093°15'0 0.0
2017-Sep-20 15:00N 30°14' W 093°15'0 0.0
2017-Sep-20 14:00N 30°14' W 093°15'0 0.0
2017-Sep-20 13:30N 30°14' W 093°15'0 0.0
2017-Sep-20 13:00N 30°14' W 093°15'0 0.0
2017-Sep-20 12:30N 30°14' W 093°15'0 0.0
2017-Sep-20 12:00N 30°14' W 093°15'0 0.0
2017-Sep-20 11:30N 30°14' W 093°15'0 0.0
2017-Sep-20 11:00N 30°14' W 093°15'0 0.0
2017-Sep-20 10:30N 30°14' W 093°15'0 0.0
2017-Sep-20 10:00N 30°14' W 093°15'0 0.0
2017-Sep-20 09:30N 30°14' W 093°15'0 0.0
2017-Sep-20 09:00N 30°14' W 093°15'0 0.0
2017-Sep-20 08:30N 30°14' W 093°15'0 0.0
2017-Sep-20 08:00N 30°14' W 093°15'0 0.0
2017-Sep-20 07:30N 30°14' W 093°15'0 0.0
2017-Sep-20 07:00N 30°14' W 093°15'0 0.0
2017-Sep-20 06:30N 30°14' W 093°15'0 0.0
2017-Sep-20 06:00N 30°14' W 093°15'0 0.0
2017-Sep-20 05:30N 30°14' W 093°15'0 0.0
2017-Sep-20 05:00N 30°14' W 093°15'0 0.0
2017-Sep-20 04:30N 30°14' W 093°15'0 0.0
2017-Sep-20 04:01N 30°14' W 093°15'0 0.0
2017-Sep-20 03:30N 30°14' W 093°15'0 0.0
2017-Sep-20 03:00N 30°14' W 093°15'0 0.0
2017-Sep-20 02:30N 30°14' W 093°15'0 0.0
2017-Sep-20 02:00N 30°14' W 093°15'0 0.0
2017-Sep-20 01:30N 30°14' W 093°15'0 0.0
2017-Sep-20 01:00N 30°14' W 093°15'0 0.0
2017-Sep-20 00:30N 30°14' W 093°15'0 0.0
2017-Sep-20 00:00N 30°14' W 093°15'0 0.0
2017-Sep-19 23:30N 30°14' W 093°15'0 0.0
2017-Sep-19 23:00N 30°14' W 093°15'0 0.0
2017-Sep-19 22:30N 30°14' W 093°15'0 0.0
2017-Sep-19 22:00N 30°14' W 093°15'0 0.0
2017-Sep-19 21:30N 30°14' W 093°15'0 0.0
2017-Sep-19 21:00N 30°14' W 093°15'0 0.0
2017-Sep-19 20:30N 30°14' W 093°15'0 0.0
2017-Sep-19 20:00N 30°14' W 093°15'0 0.0
2017-Sep-19 19:30N 30°14' W 093°15'0 0.0
2017-Sep-19 19:00N 30°14' W 093°15'0 0.0
2017-Sep-19 18:30N 30°14' W 093°15'0 0.0
2017-Sep-19 18:00N 30°14' W 093°15'0 0.0
2017-Sep-19 17:30N 30°14' W 093°15'0 0.0
2017-Sep-19 17:00N 30°14' W 093°15'0 0.0
2017-Sep-19 16:30N 30°14' W 093°15'0 0.0
2017-Sep-19 16:00N 30°14' W 093°15'0 0.0
2017-Sep-19 15:30N 30°14' W 093°15'0 0.0
2017-Sep-19 15:00N 30°14' W 093°15'0 0.0
2017-Sep-19 14:30N 30°14' W 093°15'0 0.0
2017-Sep-19 14:00N 30°14' W 093°15'0 0.0
2017-Sep-19 13:30N 30°14' W 093°15'0 0.0
2017-Sep-19 13:00N 30°14' W 093°15'0 0.0
2017-Sep-19 12:30N 30°14' W 093°15'0 0.0
2017-Sep-19 12:00N 30°14' W 093°15'0 0.0
2017-Sep-19 11:30N 30°14' W 093°15'0 0.0
2017-Sep-19 11:00N 30°14' W 093°15'0 0.0
2017-Sep-19 10:30N 30°14' W 093°15'0 0.0
2017-Sep-19 10:00N 30°14' W 093°15'0 0.0
2017-Sep-19 09:30N 30°14' W 093°15'0 0.0
2017-Sep-19 09:00N 30°14' W 093°15'0 0.0
2017-Sep-19 08:30N 30°14' W 093°15'0 0.0
2017-Sep-19 08:00N 30°14' W 093°15'0 0.0
2017-Sep-19 07:30N 30°14' W 093°15'0 0.0
2017-Sep-19 07:00N 30°14' W 093°15'0 0.0
2017-Sep-19 06:30N 30°14' W 093°15'0 0.0
2017-Sep-19 06:00N 30°14' W 093°15'0 0.0
2017-Sep-19 05:30N 30°14' W 093°15'0 0.0
2017-Sep-19 05:00N 30°14' W 093°15'0 0.0
2017-Sep-19 04:30N 30°14' W 093°15'0 0.0
2017-Sep-19 04:00N 30°14' W 093°15'  
Track history (hours):
 
Tides and Currents Weather Stations Pressure Air Temp Water Temp Dewpoint Dewpoint Depression Visibility Wind Speed Wind Dir Waves Ship Positions

Captain John G.

Owner: MIKE HOOKS, INC., WESTLAKE, LA. More information available from US FCC via Universal Licensing System and Coast Guard Vessel Documentation Center.

Last reported at 2017-Sep-29 03:32 UTC. Time now 2017-Oct-20 04:53 UTC.
Position N 29°33' W 090°24'.
Warning: this ship's position is 21 days out of date.

Type: Tug. MMSI: 367413340.

Date/timePositionNaut miles runAvg speedWind from/ knotsBaromVisibWave heightAir tempDewpointWater temp
2017-Sep-29 03:32N 29°33' W 090°24'0 7.5
2017-Sep-29 03:30N 29°33' W 090°25'4 7.4
2017-Sep-29 02:58N 29°34' W 090°29'4 7.5
2017-Sep-29 02:30N 29°34' W 090°33'3 6.1
2017-Sep-29 02:00N 29°35' W 090°36'3 6.1
2017-Sep-29 01:30N 29°36' W 090°40'3 5.4
2017-Sep-29 01:00N 29°36' W 090°43'3 5.4
2017-Sep-29 00:30N 29°34' W 090°44'4 7.1
2017-Sep-29 00:00N 29°32' W 090°48'7 7.5
2017-Sep-28 23:08N 29°33' W 090°55'1 7.4
2017-Sep-28 23:00N 29°34' W 090°56'114 3.9
2017-Sep-27 17:45N 29°56' W 093°05'2 7.9
2017-Sep-27 17:30N 29°56' W 093°07'4 7.1
2017-Sep-27 17:01N 29°57' W 093°11'4 8.0
2017-Sep-27 16:31N 30°00' W 093°14'3 7.0
2017-Sep-27 16:01N 30°03' W 093°16'2 4.9
2017-Sep-27 15:31N 30°05' W 093°18'1 2.2
2017-Sep-27 15:01N 30°06' W 093°19'1 2.6
2017-Sep-27 14:31N 30°06' W 093°20'4 8.3
2017-Sep-27 14:01N 30°11' W 093°19'4 8.0
2017-Sep-27 13:30N 30°13' W 093°16'1 1.0
2017-Sep-27 13:01N 30°14' W 093°15'0 0.0
2017-Sep-27 12:30N 30°14' W 093°15'0 0.0
2017-Sep-27 12:01N 30°14' W 093°15'0 0.0
2017-Sep-27 11:30N 30°14' W 093°15'0 0.0
2017-Sep-27 11:00N 30°14' W 093°15'0 0.0
2017-Sep-27 10:31N 30°14' W 093°15'0 0.0
2017-Sep-27 10:00N 30°14' W 093°15'0 0.0
2017-Sep-27 09:30N 30°14' W 093°15'0 0.0
2017-Sep-27 09:00N 30°14' W 093°15'0 0.0
2017-Sep-27 08:30N 30°14' W 093°15'0 0.0
2017-Sep-27 08:00N 30°14' W 093°15'0 0.0
2017-Sep-27 07:30N 30°14' W 093°15'0 0.0
2017-Sep-27 07:00N 30°14' W 093°15'0 0.0
2017-Sep-27 06:30N 30°14' W 093°15'0 0.0
2017-Sep-27 06:00N 30°14' W 093°15'0 0.0
2017-Sep-27 05:30N 30°14' W 093°15'0 0.0
2017-Sep-27 05:00N 30°14' W 093°15'0 0.0
2017-Sep-27 04:30N 30°14' W 093°15'0 0.0
2017-Sep-27 04:01N 30°14' W 093°15'0 0.0
2017-Sep-27 03:30N 30°14' W 093°15'0 0.0
2017-Sep-27 03:00N 30°14' W 093°15'0 0.0
2017-Sep-27 02:30N 30°14' W 093°15'0 0.0
2017-Sep-27 02:00N 30°14' W 093°15'0 0.0
2017-Sep-27 01:30N 30°14' W 093°15'0 0.0
2017-Sep-27 01:00N 30°14' W 093°15'0 0.0
2017-Sep-27 00:31N 30°14' W 093°15'0 0.0
2017-Sep-27 00:00N 30°14' W 093°15'0 0.0
2017-Sep-26 23:30N 30°14' W 093°15'0 0.0
2017-Sep-26 23:01N 30°14' W 093°15'0 0.0
2017-Sep-26 22:30N 30°14' W 093°15'0 0.0
2017-Sep-26 22:00N 30°14' W 093°15'0 0.0
2017-Sep-26 21:30N 30°14' W 093°15'0 0.0
2017-Sep-26 21:01N 30°14' W 093°15'0 0.0
2017-Sep-26 20:30N 30°14' W 093°15'0 0.0
2017-Sep-26 20:00N 30°14' W 093°15'0 0.0
2017-Sep-26 19:30N 30°14' W 093°15'0 0.0
2017-Sep-26 19:00N 30°14' W 093°15'0 0.0
2017-Sep-26 18:30N 30°14' W 093°15'0 0.0
2017-Sep-26 18:00N 30°14' W 093°15'0 0.0
2017-Sep-26 17:30N 30°14' W 093°15'0 0.0
2017-Sep-26 17:00N 30°14' W 093°15'0 0.0
2017-Sep-26 16:30N 30°14' W 093°15'0 0.0
2017-Sep-26 16:00N 30°14' W 093°15'0 0.0
2017-Sep-26 15:30N 30°14' W 093°15'0 0.0
2017-Sep-26 15:00N 30°14' W 093°15'0 0.0
2017-Sep-26 14:30N 30°14' W 093°15'0 0.0
2017-Sep-26 14:00N 30°14' W 093°15'0 0.0
2017-Sep-26 13:30N 30°14' W 093°15'0 0.0
2017-Sep-26 13:00N 30°14' W 093°15'0 0.0
2017-Sep-26 12:30N 30°14' W 093°15'0 0.0
2017-Sep-26 12:00N 30°14' W 093°15'0 0.0
2017-Sep-26 11:30N 30°14' W 093°15'0 0.0
2017-Sep-26 11:00N 30°14' W 093°15'0 0.0
2017-Sep-26 10:30N 30°14' W 093°15'0 0.0
2017-Sep-26 10:00N 30°14' W 093°15'0 0.0
2017-Sep-26 09:30N 30°14' W 093°15'0 0.0
2017-Sep-26 09:00N 30°14' W 093°15'0 0.0
2017-Sep-26 08:30N 30°14' W 093°15'0 0.0
2017-Sep-26 08:00N 30°14' W 093°15'0 0.0
2017-Sep-26 07:30N 30°14' W 093°15'0 0.0
2017-Sep-26 07:00N 30°14' W 093°15'0 0.0
2017-Sep-26 06:30N 30°14' W 093°15'0 0.0
2017-Sep-26 06:00N 30°14' W 093°15'0 0.0
2017-Sep-26 05:30N 30°14' W 093°15'0 0.0
2017-Sep-26 05:00N 30°14' W 093°15'0 0.0
2017-Sep-26 04:30N 30°14' W 093°15'0 0.0
2017-Sep-26 04:00N 30°14' W 093°15'0 0.0
2017-Sep-26 03:30N 30°14' W 093°15'0 0.0
2017-Sep-26 03:00N 30°14' W 093°15'0 0.0
2017-Sep-26 02:30N 30°14' W 093°15'0 0.0
2017-Sep-26 02:00N 30°14' W 093°15'0 0.0
2017-Sep-26 01:30N 30°14' W 093°15'0 0.0
2017-Sep-26 01:00N 30°14' W 093°15'0 0.0
2017-Sep-26 00:30N 30°14' W 093°15'0 0.0
2017-Sep-26 00:00N 30°14' W 093°15'0 0.0
2017-Sep-25 23:31N 30°14' W 093°15'0 0.0
2017-Sep-25 23:00N 30°14' W 093°15'0 0.0
2017-Sep-25 22:30N 30°14' W 093°15'0 0.0
2017-Sep-25 22:00N 30°14' W 093°15'0 0.0
2017-Sep-25 19:16N 30°14' W 093°15'0 0.0
2017-Sep-25 19:00N 30°14' W 093°15'0 0.0
2017-Sep-25 18:30N 30°14' W 093°15'0 0.0
2017-Sep-25 18:00N 30°14' W 093°15'0 0.0
2017-Sep-25 17:30N 30°14' W 093°15'0 0.0
2017-Sep-25 17:00N 30°14' W 093°15'0 0.0
2017-Sep-25 16:30N 30°14' W 093°15'0 0.0
2017-Sep-25 16:00N 30°14' W 093°15'0 0.0
2017-Sep-25 15:30N 30°14' W 093°15'0 0.0
2017-Sep-25 15:00N 30°14' W 093°15'0 0.0
2017-Sep-25 14:30N 30°14' W 093°15'0 0.0
2017-Sep-25 14:00N 30°14' W 093°15'0 0.0
2017-Sep-25 13:30N 30°14' W 093°15'0 0.0
2017-Sep-25 13:00N 30°14' W 093°15'0 0.0
2017-Sep-25 12:30N 30°14' W 093°15'0 0.0
2017-Sep-25 12:00N 30°14' W 093°15'0 0.0
2017-Sep-25 11:30N 30°14' W 093°15'0 0.0
2017-Sep-25 11:00N 30°14' W 093°15'0 0.0
2017-Sep-25 10:30N 30°14' W 093°15'0 0.0
2017-Sep-25 10:00N 30°14' W 093°15'0 0.0
2017-Sep-25 09:30N 30°14' W 093°15'0 0.0
2017-Sep-25 09:00N 30°14' W 093°15'0 0.0
2017-Sep-25 08:30N 30°14' W 093°15'0 0.0
2017-Sep-25 08:00N 30°14' W 093°15'0 0.0
2017-Sep-25 07:30N 30°14' W 093°15'0 0.0
2017-Sep-25 07:00N 30°14' W 093°15'0 0.0
2017-Sep-25 06:30N 30°14' W 093°15'0 0.0
2017-Sep-25 06:00N 30°14' W 093°15'0 0.0
2017-Sep-25 05:30N 30°14' W 093°15'0 0.0
2017-Sep-25 05:00N 30°14' W 093°15'0 0.0
2017-Sep-25 04:30N 30°14' W 093°15'0 0.0
2017-Sep-25 04:00N 30°14' W 093°15'0 0.0
2017-Sep-25 03:30N 30°14' W 093°15'0 0.0
2017-Sep-25 03:00N 30°14' W 093°15'0 0.0
2017-Sep-25 02:30N 30°14' W 093°15'0 0.0
2017-Sep-25 02:00N 30°14' W 093°15'0 0.0
2017-Sep-25 01:30N 30°14' W 093°15'0 0.0
2017-Sep-25 01:00N 30°14' W 093°15'0 0.0
2017-Sep-25 00:30N 30°14' W 093°15'0 0.0
2017-Sep-25 00:00N 30°14' W 093°15'0 0.0
2017-Sep-24 23:30N 30°14' W 093°15'0 0.0
2017-Sep-24 23:00N 30°14' W 093°15'0 0.0
2017-Sep-24 22:30N 30°14' W 093°15'0 0.0
2017-Sep-24 22:00N 30°14' W 093°15'0 0.0
2017-Sep-24 21:30N 30°14' W 093°15'0 0.0
2017-Sep-24 21:00N 30°14' W 093°15'0 0.0
2017-Sep-24 20:30N 30°14' W 093°15'0 0.0
2017-Sep-24 20:00N 30°14' W 093°15'0 0.0
2017-Sep-24 19:30N 30°14' W 093°15'0 0.0
2017-Sep-24 19:00N 30°14' W 093°15'0 0.0
2017-Sep-24 18:30N 30°14' W 093°15'0 0.0
2017-Sep-24 18:00N 30°14' W 093°15'0 0.0
2017-Sep-24 17:30N 30°14' W 093°15'0 0.0
2017-Sep-24 17:00N 30°14' W 093°15'0 0.0
2017-Sep-24 16:30N 30°14' W 093°15'0 0.0
2017-Sep-24 16:00N 30°14' W 093°15'0 0.0
2017-Sep-24 15:30N 30°14' W 093°15'0 0.0
2017-Sep-24 15:00N 30°14' W 093°15'0 0.0
2017-Sep-24 14:30N 30°14' W 093°15'0 0.0
2017-Sep-24 14:00N 30°14' W 093°15'0 0.0
2017-Sep-24 13:30N 30°14' W 093°15'0 0.0
2017-Sep-24 13:00N 30°14' W 093°15'0 0.0
2017-Sep-24 12:30N 30°14' W 093°15'0 0.0
2017-Sep-24 12:00N 30°14' W 093°15'0 0.0
2017-Sep-24 11:30N 30°14' W 093°15'0 0.0
2017-Sep-24 11:00N 30°14' W 093°15'0 0.0
2017-Sep-24 10:30N 30°14' W 093°15'0 0.0
2017-Sep-24 10:00N 30°14' W 093°15'0 0.0
2017-Sep-24 09:30N 30°14' W 093°15'0 0.0
2017-Sep-24 09:00N 30°14' W 093°15'0 0.0
2017-Sep-24 08:30N 30°14' W 093°15'0 0.0
2017-Sep-24 08:00N 30°14' W 093°15'0 0.0
2017-Sep-24 07:30N 30°14' W 093°15'0 0.0
2017-Sep-24 07:00N 30°14' W 093°15'0 0.0
2017-Sep-24 06:30N 30°14' W 093°15'0 0.0
2017-Sep-24 06:00N 30°14' W 093°15'0 0.0
2017-Sep-24 05:30N 30°14' W 093°15'0 0.0
2017-Sep-24 05:00N 30°14' W 093°15'0 0.0
2017-Sep-24 04:30N 30°14' W 093°15'0 0.0
2017-Sep-24 04:00N 30°14' W 093°15'0 0.0
2017-Sep-24 03:30N 30°14' W 093°15'0 0.0
2017-Sep-24 03:00N 30°14' W 093°15'0 0.0
2017-Sep-24 02:30N 30°14' W 093°15'0 0.0
2017-Sep-24 02:00N 30°14' W 093°15'0 0.0
2017-Sep-24 01:30N 30°14' W 093°15'0 0.0
2017-Sep-24 01:00N 30°14' W 093°15'0 0.0
2017-Sep-24 00:30N 30°14' W 093°15'0 0.0
2017-Sep-24 00:00N 30°14' W 093°15'0 0.0
2017-Sep-23 23:30N 30°14' W 093°15'0 0.0
2017-Sep-23 23:00N 30°14' W 093°15'0 0.0
2017-Sep-23 22:30N 30°14' W 093°15'0 0.0
2017-Sep-23 22:00N 30°14' W 093°15'0 0.0
2017-Sep-23 21:30N 30°14' W 093°15'0 0.0
2017-Sep-23 21:00N 30°14' W 093°15'0 0.0
2017-Sep-23 20:30N 30°14' W 093°15'0 0.0
2017-Sep-23 20:00N 30°14' W 093°15'0 0.0
2017-Sep-22 02:00N 30°14' W 093°15'0 0.0
2017-Sep-22 01:30N 30°14' W 093°15'0 0.0
2017-Sep-22 01:00N 30°14' W 093°15'0 0.0
2017-Sep-22 00:30N 30°14' W 093°15'0 0.0
2017-Sep-22 00:00N 30°14' W 093°15'0 0.0
2017-Sep-21 23:30N 30°14' W 093°15'0 0.0
2017-Sep-21 23:00N 30°14' W 093°15'0 0.0
2017-Sep-21 22:30N 30°14' W 093°15'0 0.0
2017-Sep-21 22:00N 30°14' W 093°15'0 0.0
2017-Sep-21 21:30N 30°14' W 093°15'0 0.0
2017-Sep-21 21:00N 30°14' W 093°15'0 0.0
2017-Sep-21 20:30N 30°14' W 093°15'0 0.0
2017-Sep-21 20:00N 30°14' W 093°15'0 0.0
2017-Sep-21 19:27N 30°14' W 093°15'0 0.0
2017-Sep-21 19:00N 30°14' W 093°15'0 0.0
2017-Sep-21 18:30N 30°14' W 093°15'0 0.0
2017-Sep-21 18:00N 30°14' W 093°15'0 0.0
2017-Sep-21 17:30N 30°14' W 093°15'0 0.0
2017-Sep-21 17:00N 30°14' W 093°15'0 0.0
2017-Sep-21 16:24N 30°14' W 093°15'0 0.0
2017-Sep-21 16:00N 30°14' W 093°15'0 0.0
2017-Sep-21 15:30N 30°14' W 093°15'0 0.0
2017-Sep-21 15:00N 30°14' W 093°15'0 0.0
2017-Sep-21 14:30N 30°14' W 093°15'0 0.0
2017-Sep-21 14:00N 30°14' W 093°15'0 0.0
2017-Sep-21 13:30N 30°14' W 093°15'0 0.0
2017-Sep-21 13:00N 30°14' W 093°15'0 0.0
2017-Sep-21 12:30N 30°14' W 093°15'0 0.0
2017-Sep-21 12:00N 30°14' W 093°15'0 0.0
2017-Sep-21 11:30N 30°14' W 093°15'0 0.0
2017-Sep-21 11:00N 30°14' W 093°15'0 0.0
2017-Sep-21 10:30N 30°14' W 093°15'0 0.0
2017-Sep-21 10:00N 30°14' W 093°15'0 0.0
2017-Sep-21 09:30N 30°14' W 093°15'0 0.0
2017-Sep-21 09:00N 30°14' W 093°15'0 0.0
2017-Sep-21 08:30N 30°14' W 093°15'0 0.0
2017-Sep-21 08:00N 30°14' W 093°15'0 0.0
2017-Sep-21 07:30N 30°14' W 093°15'0 0.0
2017-Sep-21 07:00N 30°14' W 093°15'0 0.0
2017-Sep-21 06:30N 30°14' W 093°15'0 0.0
2017-Sep-21 06:00N 30°14' W 093°15'0 0.0
2017-Sep-21 05:30N 30°14' W 093°15'0 0.0
2017-Sep-21 05:00N 30°14' W 093°15'0 0.0
2017-Sep-21 04:30N 30°14' W 093°15'0 0.0
2017-Sep-21 04:00N 30°14' W 093°15'0 0.0
2017-Sep-21 03:30N 30°14' W 093°15'0 0.0
2017-Sep-21 03:00N 30°14' W 093°15'0 0.0
2017-Sep-21 02:30N 30°14' W 093°15'0 0.0
2017-Sep-21 02:00N 30°14' W 093°15'0 0.0
2017-Sep-21 01:30N 30°14' W 093°15'0 0.0
2017-Sep-21 01:00N 30°14' W 093°15'0 0.0
2017-Sep-21 00:30N 30°14' W 093°15'0 0.0
2017-Sep-21 00:00N 30°14' W 093°15'0 0.0
2017-Sep-20 23:30N 30°14' W 093°15'0 0.0
2017-Sep-20 23:00N 30°14' W 093°15'0 0.0
2017-Sep-20 22:30N 30°14' W 093°15'0 0.0
2017-Sep-20 22:00N 30°14' W 093°15'0 0.0
2017-Sep-20 21:30N 30°14' W 093°15'0 0.0
2017-Sep-20 21:00N 30°14' W 093°15'0 0.0
2017-Sep-20 20:30N 30°14' W 093°15'0 0.0
2017-Sep-20 20:00N 30°14' W 093°15'0 0.0
2017-Sep-20 19:30N 30°14' W 093°15'0 0.0
2017-Sep-20 19:00N 30°14' W 093°15'0 0.0
2017-Sep-20 18:30N 30°14' W 093°15'0 0.0
2017-Sep-20 18:00N 30°14' W 093°15'0 0.0
2017-Sep-20 17:30N 30°14' W 093°15'0 0.0
2017-Sep-20 17:00N 30°14' W 093°15'0 0.0
2017-Sep-20 16:30N 30°14' W 093°15'0 0.0
2017-Sep-20 16:00N 30°14' W 093°15'0 0.0
2017-Sep-20 15:30N 30°14' W 093°15'0 0.0
2017-Sep-20 15:00N 30°14' W 093°15'0 0.0
2017-Sep-20 14:00N 30°14' W 093°15'0 0.0
2017-Sep-20 13:30N 30°14' W 093°15'0 0.0
2017-Sep-20 13:00N 30°14' W 093°15'0 0.0
2017-Sep-20 12:30N 30°14' W 093°15'0 0.0
2017-Sep-20 12:00N 30°14' W 093°15'0 0.0
2017-Sep-20 11:30N 30°14' W 093°15'0 0.0
2017-Sep-20 11:00N 30°14' W 093°15'0 0.0
2017-Sep-20 10:30N 30°14' W 093°15'0 0.0
2017-Sep-20 10:00N 30°14' W 093°15'0 0.0
2017-Sep-20 09:30N 30°14' W 093°15'0 0.0
2017-Sep-20 09:00N 30°14' W 093°15'0 0.0
2017-Sep-20 08:30N 30°14' W 093°15'0 0.0
2017-Sep-20 08:00N 30°14' W 093°15'0 0.0
2017-Sep-20 07:30N 30°14' W 093°15'0 0.0
2017-Sep-20 07:00N 30°14' W 093°15'0 0.0
2017-Sep-20 06:30N 30°14' W 093°15'0 0.0
2017-Sep-20 06:00N 30°14' W 093°15'0 0.0
2017-Sep-20 05:30N 30°14' W 093°15'0 0.0
2017-Sep-20 05:00N 30°14' W 093°15'0 0.0
2017-Sep-20 04:30N 30°14' W 093°15'0 0.0
2017-Sep-20 04:01N 30°14' W 093°15'0 0.0
2017-Sep-20 03:30N 30°14' W 093°15'0 0.0
2017-Sep-20 03:00N 30°14' W 093°15'0 0.0
2017-Sep-20 02:30N 30°14' W 093°15'0 0.0
2017-Sep-20 02:00N 30°14' W 093°15'0 0.0
2017-Sep-20 01:30N 30°14' W 093°15'0 0.0
2017-Sep-20 01:00N 30°14' W 093°15'0 0.0
2017-Sep-20 00:30N 30°14' W 093°15'0 0.0
2017-Sep-20 00:00N 30°14' W 093°15'0 0.0
2017-Sep-19 23:30N 30°14' W 093°15'0 0.0
2017-Sep-19 23:00N 30°14' W 093°15'0 0.0
2017-Sep-19 22:30N 30°14' W 093°15'0 0.0
2017-Sep-19 22:00N 30°14' W 093°15'0 0.0
2017-Sep-19 21:30N 30°14' W 093°15'0 0.0
2017-Sep-19 21:00N 30°14' W 093°15'0 0.0
2017-Sep-19 20:30N 30°14' W 093°15'0 0.0
2017-Sep-19 20:00N 30°14' W 093°15'0 0.0
2017-Sep-19 19:30N 30°14' W 093°15'0 0.0
2017-Sep-19 19:00N 30°14' W 093°15'0 0.0
2017-Sep-19 18:30N 30°14' W 093°15'0 0.0
2017-Sep-19 18:00N 30°14' W 093°15'0 0.0
2017-Sep-19 17:30N 30°14' W 093°15'0 0.0
2017-Sep-19 17:00N 30°14' W 093°15'0 0.0
2017-Sep-19 16:30N 30°14' W 093°15'0 0.0
2017-Sep-19 16:00N 30°14' W 093°15'0 0.0
2017-Sep-19 15:30N 30°14' W 093°15'0 0.0
2017-Sep-19 15:00N 30°14' W 093°15'0 0.0
2017-Sep-19 14:30N 30°14' W 093°15'0 0.0
2017-Sep-19 14:00N 30°14' W 093°15'0 0.0
2017-Sep-19 13:30N 30°14' W 093°15'0 0.0
2017-Sep-19 13:00N 30°14' W 093°15'0 0.0
2017-Sep-19 12:30N 30°14' W 093°15'0 0.0
2017-Sep-19 12:00N 30°14' W 093°15'0 0.0
2017-Sep-19 11:30N 30°14' W 093°15'0 0.0
2017-Sep-19 11:00N 30°14' W 093°15'0 0.0
2017-Sep-19 10:30N 30°14' W 093°15'0 0.0
2017-Sep-19 10:00N 30°14' W 093°15'0 0.0
2017-Sep-19 09:30N 30°14' W 093°15'0 0.0
2017-Sep-19 09:00N 30°14' W 093°15'0 0.0
2017-Sep-19 08:30N 30°14' W 093°15'0 0.0
2017-Sep-19 08:00N 30°14' W 093°15'0 0.0
2017-Sep-19 07:30N 30°14' W 093°15'0 0.0
2017-Sep-19 07:00N 30°14' W 093°15'0 0.0
2017-Sep-19 06:30N 30°14' W 093°15'0 0.0
2017-Sep-19 06:00N 30°14' W 093°15'0 0.0
2017-Sep-19 05:30N 30°14' W 093°15'0 0.0
2017-Sep-19 05:00N 30°14' W 093°15'0 0.0
2017-Sep-19 04:30N 30°14' W 093°15'0 0.0
2017-Sep-19 04:00N 30°14' W 093°15'  

Dump ship's entire track history